Terminal Aerodrome Forecast
Issued by NWS

Home | Current Version | Previous Version | Text Only | Print | Product List | Glossary Off
Versions: 1 2 3 4 5 6 7 8 9 10 11 12 13 14

000
FTUS43 KBIS 171720
TAFMOT
TAF
KMOT 171720Z 1718/1818 28014G23KT P6SM SCT200
     FM172200 28012KT P6SM SCT250
     FM180800 04008KT 2SM -SN OVC020
     FM181000 04008KT 1 1/2SM -SN OVC015
     FM181600 36011G19KT 2SM -SN BKN025=

USA.gov is the U.S. government's official web portal to all federal, state and local government web resources and services.